createdAt,value
2023-04-17T00:01:32.547Z,5.23
2023-04-17T00:03:59.243Z,5.70
2023-04-17T00:06:27.040Z,4.77
2023-04-17T00:08:53.983Z,5.20
2023-04-17T00:11:21.350Z,5.07
2023-04-17T00:13:48.814Z,5.30
2023-04-17T00:16:15.712Z,6.63
2023-04-17T00:18:42.652Z,5.13
2023-04-17T00:21:09.451Z,5.20
2023-04-17T00:23:36.166Z,5.40
2023-04-17T00:26:02.945Z,4.93
2023-04-17T00:28:29.656Z,5.07
2023-04-17T00:30:58.279Z,4.90
2023-04-17T00:33:25.270Z,5.33
2023-04-17T00:35:52.379Z,4.83
2023-04-17T00:38:19.773Z,5.03
2023-04-17T00:40:46.716Z,4.73
2023-04-17T00:43:13.506Z,4.60
2023-04-17T00:45:41.027Z,5.70
2023-04-17T00:48:10.033Z,4.57
2023-04-17T00:50:37.464Z,4.47
2023-04-17T00:53:04.766Z,4.33
2023-04-17T00:55:33.005Z,4.60
2023-04-17T00:58:00.231Z,4.80
2023-04-17T01:00:26.925Z,4.77
2023-04-17T01:02:53.952Z,5.50
2023-04-17T01:05:20.720Z,4.60
2023-04-17T01:07:47.402Z,4.43
2023-04-17T01:10:14.201Z,4.50
2023-04-17T01:12:41.370Z,4.80
2023-04-17T01:15:08.355Z,5.10
2023-04-17T01:17:35.054Z,4.77
2023-04-17T01:20:01.867Z,4.80
2023-04-17T01:22:28.665Z,4.77
2023-04-17T01:24:56.214Z,4.73
2023-04-17T01:27:22.933Z,5.10
2023-04-17T01:29:49.913Z,4.97
2023-04-17T01:32:17.803Z,4.70
2023-04-17T01:34:44.667Z,5.00
2023-04-17T01:37:11.638Z,4.43
2023-04-17T01:39:38.447Z,5.07
2023-04-17T01:42:05.592Z,5.37
2023-04-17T01:44:33.094Z,5.17
2023-04-17T01:46:59.910Z,6.07
2023-04-17T01:49:26.796Z,6.00
2023-04-17T01:51:54.072Z,5.33
2023-04-17T01:54:21.252Z,5.47
2023-04-17T01:56:48.180Z,5.40
2023-04-17T01:59:14.966Z,5.80
2023-04-17T02:01:42.239Z,5.13
2023-04-17T02:04:09.556Z,4.90
2023-04-17T02:06:36.696Z,6.57
2023-04-17T02:09:04.071Z,5.70
2023-04-17T02:11:31.192Z,5.00
2023-04-17T02:13:57.907Z,5.13
2023-04-17T02:16:25.662Z,5.03
2023-04-17T02:18:52.808Z,4.90
2023-04-17T02:21:19.745Z,5.43
2023-04-17T02:23:46.868Z,5.23
2023-04-17T02:26:14.101Z,4.60
2023-04-17T02:28:41.408Z,5.00
2023-04-17T02:31:09.295Z,4.67
2023-04-17T02:33:38.678Z,4.87
2023-04-17T02:36:08.855Z,4.83
2023-04-17T02:38:35.865Z,6.07
2023-04-17T02:41:02.544Z,5.43
2023-04-17T02:43:29.206Z,5.10
2023-04-17T02:45:55.820Z,4.87
2023-04-17T02:48:22.968Z,5.23
2023-04-17T02:50:49.631Z,5.23
2023-04-17T02:53:16.470Z,5.07
2023-04-17T02:55:43.179Z,5.07
2023-04-17T02:58:09.838Z,5.83
2023-04-17T03:00:36.614Z,5.17
2023-04-17T03:03:03.477Z,5.53
2023-04-17T03:05:30.802Z,5.10
2023-04-17T03:08:00.334Z,5.00
2023-04-17T03:10:26.971Z,4.77
2023-04-17T03:12:53.678Z,4.90
2023-04-17T03:15:20.436Z,5.27
2023-04-17T03:17:47.308Z,5.20
2023-04-17T03:20:15.768Z,5.37
2023-04-17T03:22:42.565Z,4.97
2023-04-17T03:25:09.756Z,5.60
2023-04-17T03:27:36.429Z,5.63
2023-04-17T03:30:03.191Z,5.67
2023-04-17T03:32:29.908Z,5.90
2023-04-17T03:34:56.552Z,5.60
2023-04-17T03:37:23.227Z,5.20
2023-04-17T03:39:50.065Z,5.60
2023-04-17T03:42:16.776Z,6.13
2023-04-17T03:44:43.412Z,5.83
2023-04-17T03:47:10.429Z,6.83
2023-04-17T03:49:37.104Z,6.07
2023-04-17T03:52:04.022Z,6.07
2023-04-17T03:54:35.205Z,5.90
2023-04-17T03:57:03.188Z,5.50
2023-04-17T03:59:31.612Z,5.23
2023-04-17T04:01:58.597Z,6.57
2023-04-17T04:04:25.918Z,5.70
2023-04-17T04:06:54.392Z,6.10
2023-04-17T04:09:21.509Z,5.90
2023-04-17T04:11:48.318Z,5.80
2023-04-17T04:14:14.999Z,5.40
2023-04-17T04:16:42.206Z,5.40
2023-04-17T04:19:09.188Z,5.60
2023-04-17T04:21:36.178Z,6.33
2023-04-17T04:24:03.172Z,5.60
2023-04-17T04:26:29.808Z,5.60
2023-04-17T04:28:56.693Z,5.87
2023-04-17T04:31:25.573Z,6.10
2023-04-17T04:33:55.288Z,5.27
2023-04-17T04:36:22.985Z,6.17
2023-04-17T04:38:50.447Z,5.63
2023-04-17T04:41:19.931Z,5.80
2023-04-17T04:43:46.773Z,5.87
2023-04-17T04:46:13.555Z,5.83
2023-04-17T04:48:42.695Z,5.37
2023-04-17T04:51:09.648Z,5.33
2023-04-17T04:53:36.469Z,5.37
2023-04-17T04:56:03.188Z,5.80
2023-04-17T04:58:29.830Z,6.00
2023-04-17T05:00:56.535Z,5.57
2023-04-17T05:03:23.551Z,5.40
2023-04-17T05:05:50.568Z,6.07
2023-04-17T05:08:17.471Z,6.03
2023-04-17T05:10:46.019Z,5.70
2023-04-17T05:13:12.806Z,6.00
2023-04-17T05:15:43.726Z,5.47
2023-04-17T05:18:11.212Z,5.33
2023-04-17T05:20:39.076Z,5.60
2023-04-17T05:23:11.075Z,5.43
2023-04-17T05:25:37.758Z,5.40
2023-04-17T05:28:04.504Z,5.57
2023-04-17T05:30:31.176Z,6.37
2023-04-17T05:32:59.111Z,6.77
2023-04-17T05:35:25.824Z,5.23
2023-04-17T05:37:52.927Z,5.47
2023-04-17T05:40:19.707Z,6.27
2023-04-17T05:42:46.381Z,5.93
2023-04-17T05:45:14.570Z,6.23
2023-04-17T05:47:41.869Z,5.97
2023-04-17T05:50:09.225Z,5.90
2023-04-17T05:52:39.165Z,5.83
2023-04-17T05:55:06.809Z,5.93
2023-04-17T05:57:33.467Z,6.30
2023-04-17T06:00:00.286Z,6.30
2023-04-17T06:02:27.235Z,6.00
2023-04-17T06:04:54.167Z,6.97
2023-04-17T06:07:21.549Z,6.40
2023-04-17T06:09:48.178Z,6.03
2023-04-17T06:12:16.139Z,7.50
2023-04-17T06:14:43.704Z,6.57
2023-04-17T06:17:10.519Z,6.53
2023-04-17T06:19:37.280Z,5.90
2023-04-17T06:22:03.881Z,6.17
2023-04-17T06:24:30.719Z,6.00
2023-04-17T06:26:57.890Z,6.30
2023-04-17T06:29:24.587Z,5.63
2023-04-17T06:31:51.275Z,6.13
2023-04-17T06:34:18.147Z,6.17
2023-04-17T06:36:44.759Z,5.97
2023-04-17T06:39:11.643Z,6.10
2023-04-17T06:41:38.475Z,5.77
2023-04-17T06:44:05.470Z,6.13
2023-04-17T06:46:32.198Z,6.77
2023-04-17T06:48:59.910Z,6.80
2023-04-17T06:51:28.675Z,5.73
2023-04-17T06:53:55.362Z,5.90
2023-04-17T06:56:24.102Z,7.17
2023-04-17T06:58:51.143Z,7.70
2023-04-17T07:01:17.845Z,5.73
2023-04-17T07:03:44.744Z,5.90
2023-04-17T07:06:11.546Z,6.77
2023-04-17T07:08:38.384Z,6.03
2023-04-17T07:11:05.154Z,6.20
2023-04-17T07:13:33.141Z,6.27
2023-04-17T07:16:01.250Z,6.07
2023-04-17T07:18:29.514Z,5.57
2023-04-17T07:20:56.679Z,6.23
2023-04-17T07:23:23.835Z,6.33
2023-04-17T07:25:50.602Z,5.70
2023-04-17T07:28:17.931Z,5.83
2023-04-17T07:30:44.600Z,5.10
2023-04-17T07:33:11.373Z,5.20
2023-04-17T07:35:38.111Z,6.10
2023-04-17T07:38:04.835Z,5.80
2023-04-17T07:40:33.215Z,5.30
2023-04-17T07:42:59.864Z,5.23
2023-04-17T07:45:28.418Z,6.40
2023-04-17T07:47:55.311Z,5.33
2023-04-17T07:50:22.069Z,5.47
2023-04-17T07:52:48.705Z,5.40
2023-04-17T07:55:15.398Z,4.70
2023-04-17T07:57:46.975Z,5.07
2023-04-17T08:00:14.669Z,5.30
2023-04-17T08:02:42.365Z,5.17
2023-04-17T08:05:09.900Z,5.30
2023-04-17T08:07:37.425Z,5.20
2023-04-17T08:10:05.195Z,4.87
2023-04-17T08:12:31.943Z,5.53
2023-04-17T08:14:58.676Z,6.07
2023-04-17T08:17:26.200Z,4.90
2023-04-17T08:19:57.637Z,5.30
2023-04-17T08:22:25.922Z,4.80
2023-04-17T08:24:57.707Z,4.43
2023-04-17T08:27:25.549Z,4.57
2023-04-17T08:29:55.299Z,4.93
2023-04-17T08:32:22.035Z,4.33
2023-04-17T08:34:48.794Z,4.90
2023-04-17T08:37:15.645Z,4.43
2023-04-17T08:39:42.327Z,4.33
2023-04-17T08:42:18.579Z,4.30
2023-04-17T08:44:45.913Z,4.63
2023-04-17T08:47:13.327Z,4.43
2023-04-17T08:49:44.103Z,5.37
2023-04-17T08:52:11.360Z,4.53
2023-04-17T08:54:38.985Z,4.37
2023-04-17T08:57:06.267Z,4.20
2023-04-17T08:59:33.301Z,4.13
2023-04-17T09:02:04.309Z,4.10
2023-04-17T09:04:41.898Z,3.73
2023-04-17T09:07:12.952Z,3.60
2023-04-17T09:09:55.583Z,3.93
2023-04-17T09:12:26.737Z,3.67
2023-04-17T09:14:53.457Z,3.87
2023-04-17T09:17:21.568Z,3.87
2023-04-17T09:20:03.961Z,3.70
2023-04-17T09:22:31.045Z,3.53
2023-04-17T09:24:58.005Z,3.60
2023-04-17T09:27:26.287Z,3.00
2023-04-17T09:29:56.952Z,3.50
2023-04-17T09:32:23.732Z,3.30
2023-04-17T09:34:50.648Z,3.10
2023-04-17T09:37:17.307Z,3.50
2023-04-17T09:39:57.712Z,3.73
2023-04-17T09:42:24.376Z,3.20
2023-04-17T09:44:51.199Z,3.07
2023-04-17T09:47:18.913Z,2.60
2023-04-17T09:49:52.413Z,3.03
2023-04-17T09:52:26.442Z,3.00
2023-04-17T09:54:53.938Z,2.97
2023-04-17T09:57:21.116Z,2.80
2023-04-17T09:59:49.237Z,3.00
2023-04-17T10:02:20.590Z,2.97
2023-04-17T10:04:47.857Z,2.90
2023-04-17T10:07:16.218Z,2.80
2023-04-17T10:09:45.586Z,2.70
2023-04-17T10:12:17.943Z,2.83
2023-04-17T10:14:46.992Z,3.90
2023-04-17T10:17:28.615Z,3.03
2023-04-17T10:19:55.853Z,3.10
2023-04-17T10:22:24.076Z,2.87
2023-04-17T10:24:52.586Z,2.90
2023-04-17T10:27:28.298Z,3.00
2023-04-17T10:29:57.204Z,2.87
2023-04-17T10:32:31.292Z,3.00
2023-04-17T10:34:59.664Z,3.00
2023-04-17T10:37:48.172Z,2.60
2023-04-17T10:40:21.043Z,2.80
2023-04-17T10:43:04.195Z,3.00
2023-04-17T10:45:56.634Z,3.00
2023-04-17T10:48:28.343Z,2.90
2023-04-17T10:50:56.195Z,2.60
2023-04-17T10:53:43.712Z,2.97
2023-04-17T10:56:11.626Z,2.87
2023-04-17T10:58:39.573Z,2.87
2023-04-17T11:01:11.363Z,2.90
2023-04-17T11:03:39.068Z,2.43
2023-04-17T11:06:06.825Z,2.63
2023-04-17T11:08:33.482Z,3.10
2023-04-17T11:11:00.133Z,2.90
2023-04-17T11:13:31.880Z,3.43
2023-04-17T11:15:58.562Z,2.97
2023-04-17T11:18:26.552Z,2.53
2023-04-17T11:20:53.296Z,3.20
2023-04-17T11:23:19.934Z,3.13
2023-04-17T11:25:47.243Z,3.73
2023-04-17T11:28:14.011Z,2.93
2023-04-17T11:30:44.300Z,3.10
2023-04-17T11:33:12.269Z,3.33
2023-04-17T11:35:41.216Z,3.37
2023-04-17T11:38:14.350Z,2.87
2023-04-17T11:40:45.749Z,3.33
2023-04-17T11:43:13.021Z,2.70
2023-04-17T11:45:42.255Z,2.83
2023-04-17T11:48:11.341Z,3.07
2023-04-17T11:50:38.796Z,3.17
2023-04-17T11:53:06.110Z,3.43
2023-04-17T11:55:34.345Z,3.20
2023-04-17T11:58:02.754Z,3.13
2023-04-17T12:00:30.061Z,2.97
2023-04-17T12:02:57.938Z,2.03
2023-04-17T12:05:26.529Z,3.20
2023-04-17T12:08:19.464Z,2.80
2023-04-17T12:10:46.130Z,3.03
2023-04-17T12:13:12.985Z,2.90
2023-04-17T12:15:39.708Z,3.30
2023-04-17T12:18:08.540Z,2.70
2023-04-17T12:20:38.467Z,2.83
2023-04-17T12:23:05.969Z,2.33
2023-04-17T12:25:33.572Z,2.93
2023-04-17T12:28:00.744Z,3.00
2023-04-17T12:30:27.830Z,3.00
2023-04-17T12:32:55.241Z,2.70
2023-04-17T12:35:22.951Z,2.73
2023-04-17T12:37:51.343Z,3.00
2023-04-17T12:40:25.048Z,2.67
2023-04-17T12:42:52.088Z,3.00
2023-04-17T12:45:19.010Z,2.70
2023-04-17T12:47:45.849Z,2.80
2023-04-17T12:50:12.713Z,2.97
2023-04-17T12:52:40.327Z,2.73
2023-04-17T12:55:07.866Z,3.00
2023-04-17T12:57:36.535Z,2.73
2023-04-17T13:00:06.434Z,2.50
2023-04-17T13:02:33.415Z,2.63
2023-04-17T13:05:00.568Z,3.23
2023-04-17T13:07:28.420Z,2.93
2023-04-17T13:09:55.182Z,2.80
2023-04-17T13:12:21.871Z,2.57
2023-04-17T13:14:48.536Z,2.80
2023-04-17T13:17:17.095Z,2.70
2023-04-17T13:19:44.350Z,2.90
2023-04-17T13:22:11.015Z,3.13
2023-04-17T13:24:37.878Z,3.07
2023-04-17T13:27:04.703Z,3.17
2023-04-17T13:29:31.578Z,2.90
2023-04-17T13:31:58.304Z,3.20
2023-04-17T13:34:24.995Z,2.90
2023-04-17T13:36:51.733Z,3.10
2023-04-17T13:39:18.423Z,3.00
2023-04-17T13:41:45.640Z,2.90
2023-04-17T13:44:13.573Z,3.00
2023-04-17T13:46:40.954Z,3.10
2023-04-17T13:49:08.195Z,2.77
2023-04-17T13:51:34.893Z,2.87
2023-04-17T13:54:01.578Z,3.20
2023-04-17T13:56:28.908Z,2.90
2023-04-17T13:58:55.858Z,3.50
2023-04-17T14:01:22.593Z,2.90
2023-04-17T14:03:49.883Z,3.00
2023-04-17T14:06:17.822Z,3.00
2023-04-17T14:08:45.717Z,4.93
2023-04-17T14:11:13.120Z,3.10
2023-04-17T14:13:39.971Z,3.00
2023-04-17T14:16:06.918Z,3.03
2023-04-17T14:18:33.597Z,3.13
2023-04-17T14:21:00.274Z,2.80
2023-04-17T14:23:26.936Z,3.10
2023-04-17T14:25:53.617Z,3.10
2023-04-17T14:28:21.235Z,3.17
2023-04-17T14:30:48.299Z,3.07
2023-04-17T14:33:14.945Z,3.07
2023-04-17T14:35:41.675Z,3.23
2023-04-17T14:38:08.750Z,3.20
2023-04-17T14:40:35.501Z,3.30
2023-04-17T14:43:02.169Z,2.90
2023-04-17T14:45:28.905Z,2.77
2023-04-17T14:47:55.640Z,2.30
2023-04-17T14:50:22.318Z,2.67
2023-04-17T14:52:48.959Z,2.50
2023-04-17T14:55:15.630Z,2.40
2023-04-17T14:57:42.326Z,2.90
2023-04-17T15:00:09.432Z,2.70
2023-04-17T15:02:39.133Z,2.90
2023-04-17T15:05:07.042Z,2.87
2023-04-17T15:07:33.815Z,2.73
2023-04-17T15:10:00.671Z,3.10
2023-04-17T15:12:28.484Z,3.10
2023-04-17T15:14:56.437Z,3.00
2023-04-17T15:17:23.214Z,2.67
2023-04-17T15:19:49.981Z,2.67
2023-04-17T15:22:16.941Z,2.97
2023-04-17T15:24:43.577Z,2.87
2023-04-17T15:27:10.374Z,2.90
2023-04-17T15:29:38.134Z,3.00
2023-04-17T15:32:05.246Z,3.30
2023-04-17T15:34:34.276Z,2.60
2023-04-17T15:37:01.185Z,2.93
2023-04-17T15:39:27.911Z,3.00
2023-04-17T15:41:56.512Z,3.00
2023-04-17T15:44:23.204Z,3.03
2023-04-17T15:46:49.880Z,3.10
2023-04-17T15:49:16.607Z,2.60
2023-04-17T15:51:43.258Z,2.93
2023-04-17T15:54:11.992Z,2.60
2023-04-17T15:56:39.543Z,2.90
2023-04-17T15:59:06.227Z,2.70
2023-04-17T16:01:32.906Z,2.63
2023-04-17T16:03:59.816Z,3.43
2023-04-17T16:06:27.489Z,2.40
2023-04-17T16:08:54.242Z,2.80
2023-04-17T16:11:20.990Z,2.70
2023-04-17T16:13:47.654Z,2.30
2023-04-17T16:16:14.415Z,2.53
2023-04-17T16:18:41.489Z,2.47
2023-04-17T16:21:11.800Z,3.60
2023-04-17T16:23:39.354Z,2.70
2023-04-17T16:26:06.671Z,2.53
2023-04-17T16:28:34.503Z,2.63
2023-04-17T16:31:01.207Z,2.30
2023-04-17T16:33:27.945Z,2.40
2023-04-17T16:35:56.307Z,2.40
2023-04-17T16:38:23.104Z,2.00
2023-04-17T16:40:49.929Z,2.20
2023-04-17T16:43:16.742Z,2.23
2023-04-17T16:45:43.368Z,2.67
2023-04-17T16:48:11.528Z,2.27
2023-04-17T16:50:38.248Z,2.60
2023-04-17T16:53:04.938Z,2.37
2023-04-17T16:55:31.542Z,2.03
2023-04-17T16:58:00.207Z,2.47
2023-04-17T17:00:26.844Z,2.63
2023-04-17T17:02:53.573Z,2.33
2023-04-17T17:05:20.411Z,2.77
2023-04-17T17:07:47.178Z,4.20
2023-04-17T17:10:13.824Z,2.83
2023-04-17T17:12:40.805Z,2.97
2023-04-17T17:15:07.824Z,2.60
2023-04-17T17:17:34.583Z,2.63
2023-04-17T17:20:01.609Z,2.80
2023-04-17T17:22:28.321Z,2.70
2023-04-17T17:24:56.524Z,2.30
2023-04-17T17:27:24.246Z,2.40
2023-04-17T17:29:56.545Z,2.40
2023-04-17T17:32:25.429Z,2.20
2023-04-17T17:34:52.789Z,2.33
2023-04-17T17:37:19.970Z,2.27
2023-04-17T17:39:46.617Z,2.00
2023-04-17T17:42:13.227Z,2.10
2023-04-17T17:44:39.857Z,1.90
2023-04-17T17:47:07.894Z,1.87
2023-04-17T17:49:34.891Z,1.80
2023-04-17T17:52:01.526Z,1.83
2023-04-17T17:54:28.200Z,1.83
2023-04-17T17:56:54.874Z,1.80
2023-04-17T17:59:22.101Z,1.50
2023-04-17T18:01:48.873Z,1.60
2023-04-17T18:04:15.907Z,2.03
2023-04-17T18:06:42.982Z,1.90
2023-04-17T18:09:09.638Z,1.83
2023-04-17T18:11:37.244Z,2.00
2023-04-17T18:14:03.910Z,1.87
2023-04-17T18:16:32.629Z,1.90
2023-04-17T18:19:04.705Z,1.90
2023-04-17T18:21:31.833Z,1.70
2023-04-17T18:23:58.514Z,2.10
2023-04-17T18:26:25.278Z,1.90
2023-04-17T18:28:52.033Z,1.90
2023-04-17T18:31:21.583Z,1.80
2023-04-17T18:33:48.459Z,1.83
2023-04-17T18:36:15.092Z,2.00
2023-04-17T18:38:41.737Z,1.80
2023-04-17T18:41:09.211Z,1.80
2023-04-17T18:43:35.914Z,1.77
2023-04-17T18:46:07.509Z,1.70
2023-04-17T18:48:34.609Z,1.80
2023-04-17T18:51:14.718Z,1.40
2023-04-17T18:53:41.455Z,1.30
2023-04-17T18:56:09.187Z,1.33
2023-04-17T18:58:37.689Z,1.40
2023-04-17T19:01:06.127Z,1.30
2023-04-17T19:03:33.110Z,1.27
2023-04-17T19:05:59.761Z,1.27
2023-04-17T19:08:26.445Z,1.13
2023-04-17T19:10:53.118Z,1.50
2023-04-17T19:13:19.815Z,1.10
2023-04-17T19:15:46.476Z,1.33
2023-04-17T19:18:13.163Z,1.30
2023-04-17T19:20:41.154Z,1.43
2023-04-17T19:23:08.520Z,1.10
2023-04-17T19:25:35.192Z,1.30
2023-04-17T19:28:01.845Z,1.23
2023-04-17T19:30:28.485Z,1.27
2023-04-17T19:32:55.557Z,1.33
2023-04-17T19:35:22.237Z,1.40
2023-04-17T19:37:48.889Z,1.40
2023-04-17T19:40:24.246Z,1.70
2023-04-17T19:42:51.963Z,1.60
2023-04-17T19:45:20.581Z,1.67
2023-04-17T19:47:54.576Z,1.67
2023-04-17T19:50:23.290Z,2.13
2023-04-17T19:52:51.192Z,1.90
2023-04-17T19:55:18.107Z,1.90
2023-04-17T19:57:44.823Z,1.90
2023-04-17T20:00:12.711Z,1.97
2023-04-17T20:02:39.541Z,4.73
2023-04-17T20:05:06.701Z,3.10
2023-04-17T20:07:33.526Z,2.27
2023-04-17T20:10:00.219Z,3.40
2023-04-17T20:12:26.890Z,2.50
2023-04-17T20:14:53.623Z,2.73
2023-04-17T20:17:20.365Z,2.37
2023-04-17T20:19:47.014Z,2.33
2023-04-17T20:22:13.631Z,2.70
2023-04-17T20:24:40.324Z,2.40
2023-04-17T20:27:06.943Z,2.80
2023-04-17T20:29:33.610Z,2.80
2023-04-17T20:32:02.355Z,2.50
2023-04-17T20:34:34.862Z,2.90
2023-04-17T20:37:02.076Z,3.00
2023-04-17T20:39:29.020Z,2.90
2023-04-17T20:41:56.682Z,3.13
2023-04-17T20:44:23.338Z,2.80
2023-04-17T20:46:50.064Z,2.93
2023-04-17T20:49:16.797Z,3.10
2023-04-17T20:51:44.346Z,3.10
2023-04-17T20:54:11.188Z,2.90
2023-04-17T20:56:37.986Z,3.17
2023-04-17T20:59:04.712Z,3.23
2023-04-17T21:01:31.385Z,3.33
2023-04-17T21:03:58.371Z,3.00
2023-04-17T21:06:26.650Z,3.30
2023-04-17T21:08:53.999Z,3.63
2023-04-17T21:11:21.409Z,3.23
2023-04-17T21:13:48.262Z,3.27
2023-04-17T21:16:15.006Z,3.60
2023-04-17T21:18:41.722Z,3.43
2023-04-17T21:21:08.407Z,3.77
2023-04-17T21:23:35.063Z,3.43
2023-04-17T21:26:02.059Z,3.90
2023-04-17T21:28:28.739Z,3.90
2023-04-17T21:30:55.383Z,4.10
2023-04-17T21:33:22.145Z,4.20
2023-04-17T21:35:48.813Z,4.10
2023-04-17T21:38:15.593Z,4.93
2023-04-17T21:40:50.858Z,4.13
2023-04-17T21:43:18.407Z,4.30
2023-04-17T21:45:45.097Z,4.40
2023-04-17T21:48:11.898Z,4.40
2023-04-17T21:50:41.121Z,5.30
2023-04-17T21:53:08.169Z,4.87
2023-04-17T21:55:35.306Z,4.93
2023-04-17T21:58:02.288Z,5.20
2023-04-17T22:00:44.222Z,5.43
2023-04-17T22:03:11.153Z,5.20
2023-04-17T22:05:37.888Z,5.87
2023-04-17T22:08:04.577Z,5.23
2023-04-17T22:10:31.193Z,5.33
2023-04-17T22:12:58.162Z,5.83
2023-04-17T22:15:24.835Z,6.50
2023-04-17T22:17:51.688Z,5.43
2023-04-17T22:20:18.968Z,6.03
2023-04-17T22:22:46.363Z,5.67
2023-04-17T22:25:13.318Z,5.70
2023-04-17T22:27:39.978Z,6.67
2023-04-17T22:30:07.113Z,5.87
2023-04-17T22:32:34.351Z,5.13
2023-04-17T22:35:00.997Z,5.73
2023-04-17T22:37:27.624Z,5.73
2023-04-17T22:39:54.273Z,7.00
2023-04-17T22:42:21.133Z,6.27
2023-04-17T22:44:47.801Z,5.80
2023-04-17T22:47:14.602Z,5.70
2023-04-17T22:49:41.559Z,5.70
2023-04-17T22:52:08.326Z,6.53
2023-04-17T22:54:35.409Z,6.43
2023-04-17T22:57:04.852Z,6.33
2023-04-17T22:59:31.522Z,6.77
2023-04-17T23:01:58.749Z,6.03
2023-04-17T23:04:25.551Z,6.47
2023-04-17T23:06:52.206Z,6.17
2023-04-17T23:09:18.850Z,6.37
2023-04-17T23:11:45.476Z,6.40
2023-04-17T23:14:12.456Z,6.50
2023-04-17T23:16:39.283Z,5.83
2023-04-17T23:19:05.999Z,6.40
2023-04-17T23:21:32.795Z,6.00
2023-04-17T23:23:59.491Z,6.53
2023-04-17T23:26:26.117Z,6.97
2023-04-17T23:28:52.785Z,6.40
2023-04-17T23:31:19.508Z,6.57
2023-04-17T23:33:46.224Z,6.23
2023-04-17T23:36:13.622Z,6.70
2023-04-17T23:38:40.364Z,7.03
2023-04-17T23:41:07.080Z,6.43
2023-04-17T23:43:33.706Z,6.03
2023-04-17T23:46:00.830Z,6.63
2023-04-17T23:48:28.162Z,5.77
2023-04-17T23:50:54.959Z,6.37
2023-04-17T23:53:21.609Z,6.00
2023-04-17T23:55:48.221Z,6.47
2023-04-17T23:58:14.943Z,7.13
